createdAt,value
2018-09-18T00:00:05.467Z,4.33
2018-09-18T00:02:34.467Z,4.97
2018-09-18T00:05:03.565Z,4.50
2018-09-18T00:07:32.720Z,4.50
2018-09-18T00:10:01.775Z,4.57
2018-09-18T00:12:30.852Z,4.63
2018-09-18T00:15:01.757Z,5.00
2018-09-18T00:17:30.808Z,5.90
2018-09-18T00:19:59.870Z,5.33
2018-09-18T00:22:29.182Z,5.63
2018-09-18T00:24:58.196Z,5.70
2018-09-18T00:27:27.251Z,5.80
2018-09-18T00:29:56.271Z,5.20
2018-09-18T00:32:25.266Z,6.10
2018-09-18T00:34:54.496Z,5.87
2018-09-18T00:37:23.473Z,5.27
2018-09-18T00:39:52.601Z,5.40
2018-09-18T00:42:21.589Z,5.03
2018-09-18T00:44:50.657Z,5.30
2018-09-18T00:47:19.682Z,10.50
2018-09-18T00:49:48.687Z,6.10
2018-09-18T00:52:18.736Z,5.60
2018-09-18T00:54:47.764Z,5.40
2018-09-18T00:57:16.820Z,5.40
2018-09-18T00:59:45.974Z,5.57
2018-09-18T01:02:15.163Z,5.20
2018-09-18T01:04:44.276Z,5.60
2018-09-18T01:07:13.507Z,5.70
2018-09-18T01:09:42.539Z,5.73
2018-09-18T01:12:11.519Z,5.53
2018-09-18T01:14:40.660Z,5.23
2018-09-18T01:17:09.715Z,5.30
2018-09-18T01:19:38.719Z,5.17
2018-09-18T01:22:08.119Z,5.30
2018-09-18T01:24:37.151Z,5.50
2018-09-18T01:27:06.314Z,5.40
2018-09-18T01:29:35.420Z,5.47
2018-09-18T01:32:04.485Z,4.97
2018-09-18T01:34:33.818Z,5.27
2018-09-18T01:37:02.876Z,5.03
2018-09-18T01:39:31.896Z,4.93
2018-09-18T01:42:00.903Z,4.90
2018-09-18T01:44:30.229Z,5.47
2018-09-18T01:46:59.198Z,5.83
2018-09-18T01:49:28.220Z,5.23
2018-09-18T01:51:57.275Z,5.40
2018-09-18T01:54:26.285Z,5.20
2018-09-18T01:56:55.378Z,5.03
2018-09-18T01:59:24.432Z,5.10
2018-09-18T02:01:53.439Z,4.93
2018-09-18T02:04:22.516Z,5.60
2018-09-18T02:06:51.572Z,5.47
2018-09-18T02:09:20.860Z,5.40
2018-09-18T02:11:49.940Z,5.80
2018-09-18T02:14:19.021Z,5.43
2018-09-18T02:16:48.019Z,5.70
2018-09-18T02:19:17.059Z,6.37
2018-09-18T02:21:46.080Z,5.60
2018-09-18T02:24:15.102Z,6.10
2018-09-18T02:26:44.137Z,5.50
2018-09-18T02:29:13.135Z,5.37
2018-09-18T02:31:42.140Z,5.07
2018-09-18T02:34:11.142Z,5.20
2018-09-18T02:36:40.207Z,5.43
2018-09-18T02:39:10.980Z,5.77
2018-09-18T02:41:40.204Z,5.10
2018-09-18T02:44:09.185Z,5.83
2018-09-18T02:46:38.207Z,4.97
2018-09-18T02:49:07.601Z,5.63
2018-09-18T02:51:36.595Z,4.67
2018-09-18T02:54:05.640Z,5.10
2018-09-18T02:56:34.672Z,5.40
2018-09-18T02:59:04.044Z,5.27
2018-09-18T03:01:33.055Z,5.30
2018-09-18T03:04:02.265Z,5.50
2018-09-18T03:06:31.503Z,5.50
2018-09-18T03:09:00.506Z,5.43
2018-09-18T03:11:29.693Z,5.10
2018-09-18T03:13:58.856Z,5.60
2018-09-18T03:16:27.905Z,4.97
2018-09-18T03:18:56.978Z,5.50
2018-09-18T03:21:25.974Z,5.40
2018-09-18T03:23:54.989Z,5.60
2018-09-18T03:26:30.774Z,6.20
2018-09-18T03:29:00.026Z,5.83
2018-09-18T03:31:29.040Z,6.63
2018-09-18T03:33:58.363Z,5.50
2018-09-18T03:36:27.767Z,5.87
2018-09-18T03:38:56.768Z,6.33
2018-09-18T03:41:25.780Z,6.43
2018-09-18T03:43:54.774Z,5.50
2018-09-18T03:46:23.791Z,5.63
2018-09-18T03:48:52.836Z,6.57
2018-09-18T03:51:21.874Z,9.10
2018-09-18T03:53:50.915Z,8.27
2018-09-18T03:56:19.919Z,8.50
2018-09-18T03:58:49.038Z,8.50
2018-09-18T04:01:18.048Z,7.60
2018-09-18T04:03:47.090Z,7.30
2018-09-18T04:06:16.129Z,6.90
2018-09-18T04:08:45.148Z,6.77
2018-09-18T04:11:14.177Z,7.17
2018-09-18T04:13:43.210Z,6.20
2018-09-18T04:16:12.262Z,6.97
2018-09-18T04:18:41.316Z,7.03
2018-09-18T04:21:10.355Z,6.87
2018-09-18T04:23:39.438Z,7.07
2018-09-18T04:26:08.448Z,7.20
2018-09-18T04:28:37.509Z,6.93
2018-09-18T04:31:06.548Z,7.10
2018-09-18T04:33:35.600Z,6.83
2018-09-18T04:36:04.639Z,7.07
2018-09-18T04:38:33.687Z,6.23
2018-09-18T04:41:02.771Z,5.73
2018-09-18T04:43:31.769Z,6.23
2018-09-18T04:46:00.830Z,5.93
2018-09-18T04:48:29.954Z,6.53
2018-09-18T04:50:59.008Z,6.60
2018-09-18T04:53:29.001Z,7.50
2018-09-18T04:55:58.022Z,7.57
2018-09-18T04:58:27.021Z,7.60
2018-09-18T05:00:56.022Z,7.30
2018-09-18T05:03:25.053Z,7.10
2018-09-18T05:05:54.108Z,7.73
2018-09-18T05:08:23.194Z,7.83
2018-09-18T05:10:52.272Z,7.50
2018-09-18T05:13:22.728Z,7.97
2018-09-18T05:15:51.893Z,8.10
2018-09-18T05:18:20.988Z,7.83
2018-09-18T05:20:51.162Z,8.00
2018-09-18T05:23:20.224Z,7.73
2018-09-18T05:25:49.398Z,7.90
2018-09-18T05:28:18.424Z,7.80
2018-09-18T05:30:47.490Z,8.30
2018-09-18T05:33:16.488Z,6.83
2018-09-18T05:35:45.494Z,8.43
2018-09-18T05:38:14.549Z,9.80
2018-09-18T05:40:43.891Z,9.50
2018-09-18T05:43:13.112Z,7.40
2018-09-18T05:45:42.091Z,7.97
2018-09-18T05:48:13.419Z,7.80
2018-09-18T05:50:43.055Z,7.17
2018-09-18T05:53:12.576Z,8.60
2018-09-18T05:55:41.865Z,8.67
2018-09-18T05:58:11.064Z,8.57
2018-09-18T06:00:40.118Z,8.63
2018-09-18T06:03:09.168Z,8.27
2018-09-18T06:05:38.268Z,8.90
2018-09-18T06:08:07.548Z,9.03
2018-09-18T06:10:36.592Z,9.13
2018-09-18T06:13:05.610Z,8.63
2018-09-18T06:15:34.985Z,9.30
2018-09-18T06:18:04.148Z,8.80
2018-09-18T06:20:33.296Z,8.43
2018-09-18T06:23:02.532Z,8.60
2018-09-18T06:25:31.706Z,9.10
2018-09-18T06:28:00.778Z,8.60
2018-09-18T06:30:29.812Z,9.00
2018-09-18T06:32:58.844Z,8.60
2018-09-18T06:35:27.940Z,8.73
2018-09-18T06:37:56.950Z,8.87
2018-09-18T06:40:26.002Z,9.17
2018-09-18T06:42:54.996Z,8.60
2018-09-18T06:45:24.035Z,8.33
2018-09-18T06:47:53.107Z,9.13
2018-09-18T06:50:22.338Z,8.97
2018-09-18T06:52:51.394Z,9.20
2018-09-18T06:55:20.404Z,9.63
2018-09-18T06:57:49.679Z,9.60
2018-09-18T07:00:18.705Z,8.83
2018-09-18T07:02:47.706Z,9.37
2018-09-18T07:05:17.020Z,9.07
2018-09-18T07:07:46.063Z,9.73
2018-09-18T07:10:15.107Z,8.03
2018-09-18T07:12:44.465Z,9.63
2018-09-18T07:15:13.600Z,9.17
2018-09-18T07:17:42.760Z,9.40
2018-09-18T07:20:11.933Z,9.27
2018-09-18T07:22:40.985Z,8.90
2018-09-18T07:25:10.120Z,9.53
2018-09-18T07:27:39.242Z,10.33
2018-09-18T07:30:09.212Z,8.80
2018-09-18T07:32:38.337Z,9.07
2018-09-18T07:35:07.606Z,9.70
2018-09-18T07:37:36.644Z,9.13
2018-09-18T07:40:05.760Z,9.23
2018-09-18T07:42:35.026Z,8.70
2018-09-18T07:45:04.773Z,8.70
2018-09-18T07:47:33.776Z,8.83
2018-09-18T07:50:02.816Z,8.90
2018-09-18T07:52:31.842Z,9.20
2018-09-18T07:55:00.893Z,9.03
2018-09-18T07:57:29.916Z,8.40
2018-09-18T07:59:58.935Z,9.60
2018-09-18T08:02:28.012Z,8.93
2018-09-18T08:04:57.240Z,8.90
2018-09-18T08:07:26.304Z,9.20
2018-09-18T08:09:55.442Z,9.07
2018-09-18T08:12:24.494Z,8.43
2018-09-18T08:14:53.600Z,8.10
2018-09-18T08:17:22.626Z,8.07
2018-09-18T08:19:51.767Z,8.40
2018-09-18T08:22:20.866Z,8.50
2018-09-18T08:24:49.906Z,7.73
2018-09-18T08:27:18.933Z,7.60
2018-09-18T08:29:47.982Z,8.13
2018-09-18T08:32:17.140Z,9.03
2018-09-18T08:34:46.191Z,8.10
2018-09-18T08:37:15.214Z,8.30
2018-09-18T08:39:44.315Z,7.67
2018-09-18T08:42:13.579Z,8.33
2018-09-18T08:44:42.618Z,8.37
2018-09-18T08:47:11.653Z,7.90
2018-09-18T08:49:41.180Z,7.70
2018-09-18T08:52:10.476Z,8.23
2018-09-18T08:54:39.649Z,8.33
2018-09-18T08:57:08.649Z,7.60
2018-09-18T08:59:37.711Z,7.20
2018-09-18T09:02:06.805Z,7.63
2018-09-18T09:04:36.128Z,7.57
2018-09-18T09:07:05.366Z,7.77
2018-09-18T09:09:34.604Z,7.60
2018-09-18T09:12:03.816Z,7.83
2018-09-18T09:14:32.933Z,6.87
2018-09-18T09:17:02.169Z,7.00
2018-09-18T09:19:31.275Z,6.87
2018-09-18T09:22:00.406Z,7.43
2018-09-18T09:24:29.602Z,6.43
2018-09-18T09:26:58.713Z,6.27
2018-09-18T09:29:28.045Z,6.23
2018-09-18T09:31:57.081Z,5.97
2018-09-18T09:34:26.308Z,6.33
2018-09-18T09:36:55.429Z,6.20
2018-09-18T09:39:24.605Z,6.70
2018-09-18T09:41:53.661Z,5.77
2018-09-18T09:44:22.866Z,5.90
2018-09-18T09:46:51.981Z,5.73
2018-09-18T09:49:20.988Z,6.10
2018-09-18T09:51:50.059Z,5.40
2018-09-18T09:54:19.056Z,5.80
2018-09-18T09:56:48.133Z,5.80
2018-09-18T09:59:17.751Z,6.13
2018-09-18T10:01:55.065Z,5.47
2018-09-18T10:04:24.178Z,5.50
2018-09-18T10:06:53.166Z,5.70
2018-09-18T10:09:22.287Z,6.00
2018-09-18T10:11:51.274Z,5.90
2018-09-18T10:14:20.357Z,5.70
2018-09-18T10:16:49.632Z,5.87
2018-09-18T10:19:19.067Z,5.43
2018-09-18T10:21:48.117Z,5.40
2018-09-18T10:24:17.181Z,4.90
2018-09-18T10:26:46.587Z,5.23
2018-09-18T10:29:15.773Z,5.33
2018-09-18T10:31:44.892Z,5.40
2018-09-18T10:34:14.120Z,5.70
2018-09-18T10:36:44.227Z,5.27
2018-09-18T10:39:13.446Z,5.30
2018-09-18T10:41:42.740Z,5.60
2018-09-18T10:44:12.071Z,5.20
2018-09-18T10:46:41.515Z,4.77
2018-09-18T10:49:10.952Z,5.20
2018-09-18T10:51:40.064Z,5.60
2018-09-18T10:54:09.253Z,5.50
2018-09-18T10:56:38.426Z,5.30
2018-09-18T10:59:08.585Z,5.10
2018-09-18T11:01:37.634Z,5.13
2018-09-18T11:04:07.568Z,5.05
2018-09-18T11:06:37.368Z,5.03
2018-09-18T11:09:08.982Z,4.95
2018-09-18T11:11:39.862Z,4.85
2018-09-18T11:14:10.621Z,5.08
2018-09-18T11:16:40.675Z,4.53
2018-09-18T11:19:10.598Z,5.28
2018-09-18T11:21:40.608Z,4.95
2018-09-18T11:24:10.400Z,5.30
2018-09-18T11:26:40.153Z,5.30
2018-09-18T11:29:09.802Z,5.30
2018-09-18T11:31:39.407Z,4.92
2018-09-18T11:34:09.025Z,5.28
2018-09-18T11:36:38.631Z,5.92
2018-09-18T11:39:09.237Z,5.72
2018-09-18T11:41:38.833Z,5.83
2018-09-18T11:44:08.435Z,5.95
2018-09-18T11:46:37.803Z,6.83
2018-09-18T11:49:07.296Z,7.00
2018-09-18T11:51:36.915Z,5.65
2018-09-18T11:54:06.746Z,6.30
2018-09-18T11:56:36.342Z,5.80
2018-09-18T11:59:06.161Z,5.70
2018-09-18T12:01:36.067Z,5.58
2018-09-18T12:04:06.787Z,5.92
2018-09-18T12:06:36.310Z,6.53
2018-09-18T12:09:08.719Z,6.63
2018-09-18T12:11:38.177Z,6.17
2018-09-18T12:14:07.974Z,6.10
2018-09-18T12:16:37.429Z,6.03
2018-09-18T12:19:07.377Z,6.17
2018-09-18T12:21:36.662Z,6.13
2018-09-18T12:24:06.039Z,6.23
2018-09-18T12:26:35.334Z,5.70
2018-09-18T12:29:04.651Z,6.17
2018-09-18T12:31:33.979Z,5.80
2018-09-18T12:34:03.299Z,5.63
2018-09-18T12:36:32.618Z,5.93
2018-09-18T12:39:01.918Z,5.50
2018-09-18T12:41:31.472Z,5.73
2018-09-18T12:44:00.850Z,5.47
2018-09-18T12:46:30.227Z,5.40
2018-09-18T12:48:59.688Z,5.67
2018-09-18T12:51:29.196Z,5.40
2018-09-18T12:53:58.557Z,5.23
2018-09-18T12:56:28.140Z,5.60
2018-09-18T12:58:57.754Z,5.37
2018-09-18T13:01:27.439Z,5.93
2018-09-18T13:03:56.923Z,5.47
2018-09-18T13:06:26.592Z,5.53
2018-09-18T13:08:56.331Z,5.07
2018-09-18T13:11:25.641Z,5.17
2018-09-18T13:13:55.104Z,5.70
2018-09-18T13:16:24.398Z,5.23
2018-09-18T13:18:53.999Z,5.70
2018-09-18T13:21:23.320Z,5.67
2018-09-18T13:23:52.820Z,5.20
2018-09-18T13:26:22.136Z,4.97
2018-09-18T13:28:51.425Z,5.07
2018-09-18T13:31:20.748Z,5.17
2018-09-18T13:33:52.088Z,5.10
2018-09-18T13:36:21.518Z,5.33
2018-09-18T13:38:51.037Z,5.17
2018-09-18T13:41:20.368Z,5.43
2018-09-18T13:43:49.795Z,5.73
2018-09-18T13:46:19.193Z,5.00
2018-09-18T13:48:48.676Z,5.03
2018-09-18T13:51:18.034Z,5.20
2018-09-18T13:53:47.316Z,5.67
2018-09-18T13:56:17.322Z,5.17
2018-09-18T13:58:46.749Z,5.00
2018-09-18T14:01:16.655Z,5.20
2018-09-18T14:03:46.454Z,5.50
2018-09-18T14:06:16.119Z,6.10
2018-09-18T14:08:45.435Z,5.57
2018-09-18T14:11:14.959Z,5.87
2018-09-18T14:13:44.331Z,5.83
2018-09-18T14:16:13.871Z,5.97
2018-09-18T14:18:43.301Z,5.60
2018-09-18T14:21:12.848Z,6.27
2018-09-18T14:23:42.177Z,5.90
2018-09-18T14:26:11.557Z,5.90
2018-09-18T14:28:41.071Z,6.00
2018-09-18T14:31:10.379Z,5.80
2018-09-18T14:33:40.049Z,6.10
2018-09-18T14:36:09.455Z,5.63
2018-09-18T14:38:39.252Z,5.90
2018-09-18T14:41:08.541Z,5.97
2018-09-18T14:43:38.190Z,6.28
2018-09-18T14:46:07.830Z,7.03
2018-09-18T14:48:37.088Z,6.67
2018-09-18T14:51:07.644Z,5.87
2018-09-18T14:53:37.122Z,6.57
2018-09-18T14:56:06.603Z,6.00
2018-09-18T14:58:36.511Z,6.10
2018-09-18T15:01:05.813Z,6.37
2018-09-18T15:03:35.085Z,6.77
2018-09-18T15:06:04.402Z,6.80
2018-09-18T15:08:33.698Z,6.10
2018-09-18T15:11:02.992Z,5.90
2018-09-18T15:13:32.508Z,6.20
2018-09-18T15:16:01.856Z,6.30
2018-09-18T15:18:31.304Z,6.30
2018-09-18T15:21:00.601Z,6.10
2018-09-18T15:23:30.253Z,6.70
2018-09-18T15:25:59.893Z,6.25
2018-09-18T15:28:29.646Z,6.45
2018-09-18T15:30:58.933Z,7.00
2018-09-18T15:33:28.546Z,6.28
2018-09-18T15:35:58.052Z,6.53
2018-09-18T15:38:27.755Z,6.67
2018-09-18T15:40:57.105Z,6.47
2018-09-18T15:43:26.738Z,5.62
2018-09-18T15:46:01.988Z,5.70
2018-09-18T15:48:31.828Z,5.50
2018-09-18T15:51:01.644Z,5.15
2018-09-18T15:53:31.265Z,5.08
2018-09-18T15:56:01.022Z,5.50
2018-09-18T15:58:30.626Z,5.37
2018-09-18T16:01:00.282Z,5.25
2018-09-18T16:03:29.919Z,5.75
2018-09-18T16:05:59.598Z,5.58
2018-09-18T16:08:29.206Z,5.22
2018-09-18T16:10:58.818Z,4.62
2018-09-18T16:13:28.493Z,4.58
2018-09-18T16:15:58.218Z,5.40
2018-09-18T16:18:27.963Z,5.80
2018-09-18T16:20:57.755Z,4.62
2018-09-18T16:23:27.361Z,4.60
2018-09-18T16:25:57.060Z,5.30
2018-09-18T16:28:26.751Z,4.55
2018-09-18T16:30:56.396Z,5.08
2018-09-18T16:33:26.093Z,4.42
2018-09-18T16:35:55.695Z,4.70
2018-09-18T16:38:25.253Z,5.25
2018-09-18T16:40:54.880Z,4.30
2018-09-18T16:43:24.494Z,4.85
2018-09-18T16:45:54.165Z,4.45
2018-09-18T16:48:23.985Z,4.40
2018-09-18T16:50:53.849Z,4.67
2018-09-18T16:53:23.474Z,5.12
2018-09-18T16:55:53.360Z,4.37
2018-09-18T16:58:23.005Z,5.17
2018-09-18T17:00:53.160Z,5.08
2018-09-18T17:03:22.744Z,5.45
2018-09-18T17:05:52.332Z,5.62
2018-09-18T17:08:21.952Z,4.87
2018-09-18T17:10:51.495Z,6.40
2018-09-18T17:13:21.149Z,6.12
2018-09-18T17:15:50.929Z,6.28
2018-09-18T17:18:20.786Z,5.72
2018-09-18T17:20:50.780Z,6.00
2018-09-18T17:23:20.450Z,5.53
2018-09-18T17:25:49.468Z,5.47
2018-09-18T17:28:18.575Z,5.37
2018-09-18T17:30:47.725Z,6.30
2018-09-18T17:33:16.770Z,6.33
2018-09-18T17:35:45.800Z,5.50
2018-09-18T17:38:15.183Z,5.10
2018-09-18T17:40:44.259Z,6.50
2018-09-18T17:43:13.349Z,5.40
2018-09-18T17:45:42.525Z,5.77
2018-09-18T17:48:11.568Z,5.27
2018-09-18T17:50:40.800Z,5.50
2018-09-18T17:53:09.922Z,5.27
2018-09-18T17:55:38.967Z,5.63
2018-09-18T17:58:08.057Z,5.47
2018-09-18T18:00:37.333Z,5.33
2018-09-18T18:03:06.409Z,5.73
2018-09-18T18:05:35.473Z,5.83
2018-09-18T18:08:04.916Z,5.20
2018-09-18T18:10:33.945Z,6.20
2018-09-18T18:13:02.989Z,5.73
2018-09-18T18:15:32.026Z,6.07
2018-09-18T18:18:01.060Z,6.00
2018-09-18T18:20:30.124Z,5.73
2018-09-18T18:22:59.267Z,5.90
2018-09-18T18:25:28.500Z,6.00
2018-09-18T18:27:57.517Z,5.77
2018-09-18T18:30:26.790Z,6.40
2018-09-18T18:32:55.825Z,5.57
2018-09-18T18:35:24.905Z,5.53
2018-09-18T18:37:54.188Z,5.57
2018-09-18T18:40:23.334Z,6.40
2018-09-18T18:42:52.451Z,6.73
2018-09-18T18:45:22.053Z,6.20
2018-09-18T18:47:51.369Z,6.40
2018-09-18T18:50:20.453Z,6.27
2018-09-18T18:52:49.476Z,6.17
2018-09-18T18:55:18.487Z,6.50
2018-09-18T18:57:47.506Z,6.50
2018-09-18T19:00:16.584Z,6.80
2018-09-18T19:02:45.847Z,6.00
2018-09-18T19:05:14.909Z,6.20
2018-09-18T19:07:43.918Z,6.37
2018-09-18T19:10:12.896Z,6.30
2018-09-18T19:12:42.191Z,6.23
2018-09-18T19:15:11.258Z,5.83
2018-09-18T19:17:40.287Z,6.10
2018-09-18T19:20:09.376Z,6.37
2018-09-18T19:22:38.484Z,6.23
2018-09-18T19:25:07.565Z,5.87
2018-09-18T19:27:36.804Z,5.73
2018-09-18T19:30:06.648Z,6.20
2018-09-18T19:32:35.790Z,6.40
2018-09-18T19:35:04.875Z,6.83
2018-09-18T19:37:34.255Z,6.47
2018-09-18T19:40:03.451Z,6.33
2018-09-18T19:42:32.516Z,6.27
2018-09-18T19:45:01.766Z,6.30
2018-09-18T19:47:32.476Z,6.20
2018-09-18T19:50:01.508Z,6.33
2018-09-18T19:52:30.573Z,6.77
2018-09-18T19:54:59.618Z,5.77
2018-09-18T19:57:28.830Z,6.10
2018-09-18T19:59:57.871Z,5.70
2018-09-18T20:02:26.964Z,5.93
2018-09-18T20:04:56.211Z,6.20
2018-09-18T20:07:25.265Z,5.63
2018-09-18T20:09:54.353Z,6.03
2018-09-18T20:12:23.378Z,6.10
2018-09-18T20:14:52.475Z,6.13
2018-09-18T20:17:21.652Z,7.27
2018-09-18T20:19:50.712Z,6.37
2018-09-18T20:22:19.957Z,6.80
2018-09-18T20:24:48.987Z,6.63
2018-09-18T20:27:18.010Z,6.90
2018-09-18T20:29:47.128Z,6.77
2018-09-18T20:32:16.328Z,6.20
2018-09-18T20:34:45.337Z,5.97
2018-09-18T20:37:14.414Z,6.50
2018-09-18T20:39:43.465Z,6.00
2018-09-18T20:42:12.546Z,6.60
2018-09-18T20:44:41.769Z,6.13
2018-09-18T20:47:10.901Z,5.93
2018-09-18T20:49:40.325Z,5.43
2018-09-18T20:52:09.321Z,6.37
2018-09-18T20:54:38.337Z,5.70
2018-09-18T20:57:07.389Z,5.63
2018-09-18T20:59:36.432Z,6.27
2018-09-18T21:02:05.887Z,5.73
2018-09-18T21:04:35.417Z,5.57
2018-09-18T21:07:04.478Z,6.10
2018-09-18T21:09:33.699Z,5.70
2018-09-18T21:12:02.725Z,6.17
2018-09-18T21:14:31.742Z,5.00
2018-09-18T21:17:01.126Z,5.03
2018-09-18T21:19:30.191Z,4.77
2018-09-18T21:21:59.453Z,4.60
2018-09-18T21:24:28.878Z,3.87
2018-09-18T21:26:57.896Z,3.47
2018-09-18T21:29:26.920Z,3.37
2018-09-18T21:31:55.958Z,3.70
2018-09-18T21:34:24.995Z,4.87
2018-09-18T21:36:54.033Z,4.57
2018-09-18T21:39:23.112Z,3.77
2018-09-18T21:41:52.167Z,5.03
2018-09-18T21:44:21.175Z,5.03
2018-09-18T21:46:50.233Z,5.60
2018-09-18T21:49:19.261Z,5.80
2018-09-18T21:51:48.303Z,5.60
2018-09-18T21:54:17.363Z,6.73
2018-09-18T21:56:46.366Z,6.57
2018-09-18T21:59:15.437Z,5.43
2018-09-18T22:01:44.828Z,4.77
2018-09-18T22:04:14.720Z,4.30
2018-09-18T22:06:43.752Z,4.87
2018-09-18T22:09:12.920Z,5.23
2018-09-18T22:11:42.014Z,5.23
2018-09-18T22:14:11.244Z,4.80
2018-09-18T22:16:40.342Z,4.20
2018-09-18T22:19:09.544Z,4.10
2018-09-18T22:21:38.560Z,4.90
2018-09-18T22:24:07.616Z,5.00
2018-09-18T22:26:36.642Z,5.40
2018-09-18T22:29:05.722Z,5.20
2018-09-18T22:31:34.752Z,5.10
2018-09-18T22:34:03.790Z,4.47
2018-09-18T22:36:32.840Z,4.90
2018-09-18T22:39:01.885Z,4.80
2018-09-18T22:41:31.106Z,5.00
2018-09-18T22:44:00.128Z,4.60
2018-09-18T22:46:29.171Z,5.10
2018-09-18T22:48:58.451Z,4.97
2018-09-18T22:51:27.555Z,5.70
2018-09-18T22:53:56.644Z,4.87
2018-09-18T22:56:25.925Z,5.00
2018-09-18T22:58:55.004Z,4.40
2018-09-18T23:01:24.076Z,3.73
2018-09-18T23:03:53.177Z,3.93
2018-09-18T23:06:22.178Z,4.07
2018-09-18T23:08:51.285Z,3.57
2018-09-18T23:11:20.309Z,3.93
2018-09-18T23:13:49.373Z,4.20
2018-09-18T23:16:18.411Z,4.40
2018-09-18T23:18:47.468Z,3.90
2018-09-18T23:21:16.698Z,3.90
2018-09-18T23:23:45.726Z,4.30
2018-09-18T23:26:14.779Z,4.67
2018-09-18T23:28:43.865Z,4.47
2018-09-18T23:31:12.914Z,4.83
2018-09-18T23:33:41.940Z,4.27
2018-09-18T23:36:10.994Z,3.93
2018-09-18T23:38:40.235Z,5.33
2018-09-18T23:41:09.347Z,4.80
2018-09-18T23:43:38.622Z,4.37
2018-09-18T23:46:07.620Z,4.20
2018-09-18T23:48:36.649Z,4.43
2018-09-18T23:51:05.977Z,3.80
2018-09-18T23:53:34.994Z,3.70
2018-09-18T23:56:04.062Z,3.10
2018-09-18T23:58:33.322Z,3.40
